Clearlake Park, California
Current Conditions -  °F | °C
As of 2:56 AM on Friday 19 Dec 2014 (Local Time) from KUKI Reporting Station
Light Rain Light Rain  
Wind Chill: 52°   Ceiling: 700
Heat Index: 52°   Visibility: 4mi
Dew Point: 50°   Wind: 10mph
Humidity: 93%   Direction: 170°S
Pressure: 30.06"   Gusts: 21mph
Location:  38.97°N, 122.65°W
Report Text: KUKI 191056Z AUTO 17009G18KT 4SM -RA BR BKN007 OVC018 11/10 A3006 RMK AO2 RAB05E27B43 SLP175 P0000 T01110100
Loading
Personal Weather Stations






























Interactive Weather Map New forecast layout! Learn more

10-Day Weather Forecast

Advertisements
Track Severe Weather on mobile